createdAt,value
2019-04-07T00:03:50.595Z,43.00
2019-04-07T00:08:54.516Z,43.01
2019-04-07T00:13:57.994Z,43.07
2019-04-07T00:19:01.581Z,43.09
2019-04-07T00:24:05.750Z,43.11
2019-04-07T00:29:09.735Z,43.30
2019-04-07T00:34:13.244Z,43.17
2019-04-07T00:39:16.868Z,43.18
2019-04-07T00:44:20.440Z,43.18
2019-04-07T00:49:23.901Z,43.27
2019-04-07T00:54:28.029Z,43.27
2019-04-07T00:59:32.002Z,43.31
2019-04-07T01:04:35.531Z,43.37
2019-04-07T01:09:39.863Z,43.35
2019-04-07T01:14:43.461Z,43.43
2019-04-07T01:19:47.045Z,43.40
2019-04-07T01:24:50.651Z,43.41
2019-04-07T01:29:54.200Z,43.42
2019-04-07T01:34:58.085Z,43.46
2019-04-07T01:40:01.653Z,43.41
2019-04-07T01:45:11.557Z,43.41
2019-04-07T01:50:17.357Z,43.49
2019-04-07T01:55:25.767Z,43.48
2019-04-07T02:00:48.343Z,43.51
2019-04-07T02:06:01.510Z,43.51
2019-04-07T02:11:09.431Z,43.56
2019-04-07T02:16:23.541Z,43.54
2019-04-07T02:21:34.944Z,43.55
2019-04-07T02:26:43.285Z,43.56
2019-04-07T02:31:48.392Z,43.58
2019-04-07T02:36:56.107Z,43.57
2019-04-07T02:42:01.365Z,43.59
2019-04-07T02:47:24.469Z,43.63
2019-04-07T02:52:46.153Z,43.60
2019-04-07T02:58:07.811Z,43.61
2019-04-07T03:03:25.066Z,43.63
2019-04-07T03:08:39.657Z,43.62
2019-04-07T03:13:54.435Z,43.67
2019-04-07T03:19:00.171Z,43.66
2019-04-07T03:24:08.117Z,43.65
2019-04-07T03:29:14.064Z,43.67
2019-04-07T03:34:20.794Z,43.67
2019-04-07T03:39:28.791Z,43.67
2019-04-07T03:44:45.734Z,43.69
2019-04-07T03:49:51.008Z,43.72
2019-04-07T03:55:15.249Z,43.73
2019-04-07T04:00:40.938Z,43.73
2019-04-07T04:05:52.189Z,43.71
2019-04-07T04:10:56.642Z,43.74
2019-04-07T04:16:02.924Z,43.73
2019-04-07T04:21:07.031Z,43.73
2019-04-07T04:26:10.523Z,43.70
2019-04-07T04:31:14.118Z,43.69
2019-04-07T04:36:17.817Z,43.75
2019-04-07T04:41:21.255Z,43.73
2019-04-07T04:46:24.721Z,43.70
2019-04-07T04:51:28.250Z,43.73
2019-04-07T04:56:31.651Z,43.66
2019-04-07T05:01:36.095Z,43.66
2019-04-07T05:06:39.646Z,43.70
2019-04-07T05:11:43.100Z,43.75
2019-04-07T05:16:46.560Z,43.75
2019-04-07T05:21:50.449Z,43.74
2019-04-07T05:26:54.248Z,43.75
2019-04-07T05:31:57.810Z,43.71
2019-04-07T05:37:01.325Z,43.76
2019-04-07T05:42:04.902Z,43.79
2019-04-07T05:47:10.845Z,43.79
2019-04-07T05:52:13.990Z,43.77
2019-04-07T05:57:17.539Z,43.74
2019-04-07T06:02:21.000Z,43.75
2019-04-07T06:07:28.807Z,43.75
2019-04-07T06:12:29.655Z,43.78
2019-04-07T06:17:33.133Z,43.76
2019-04-07T06:22:37.030Z,43.79
2019-04-07T06:27:40.569Z,43.75
2019-04-07T06:32:44.658Z,43.75
2019-04-07T06:37:48.226Z,43.76
2019-04-07T06:42:51.685Z,43.77
2019-04-07T06:47:56.795Z,43.68
2019-04-07T06:53:05.363Z,43.66
2019-04-07T06:58:11.156Z,43.56
2019-04-07T07:03:16.641Z,43.51
2019-04-07T07:08:45.071Z,40.90
2019-04-07T07:14:00.667Z,37.98
2019-04-07T07:19:15.156Z,36.90
2019-04-07T07:24:24.985Z,37.32
2019-04-07T07:29:26.522Z,37.54
2019-04-07T07:34:29.468Z,37.33
2019-04-07T07:39:32.913Z,38.72
2019-04-07T07:44:38.380Z,39.70
2019-04-07T07:49:42.455Z,39.85
2019-04-07T07:54:46.400Z,39.93
2019-04-07T07:59:49.914Z,40.05
2019-04-07T08:04:57.311Z,40.05
2019-04-07T08:09:58.603Z,40.16
2019-04-07T08:15:02.982Z,40.16
2019-04-07T08:20:08.377Z,40.09
2019-04-07T08:25:11.986Z,39.99
2019-04-07T08:30:16.248Z,40.09
2019-04-07T08:35:19.824Z,40.35
2019-04-07T08:40:23.302Z,40.36
2019-04-07T08:45:29.980Z,40.32
2019-04-07T08:50:32.139Z,40.36
2019-04-07T08:55:35.620Z,40.60
2019-04-07T09:00:41.587Z,40.60
2019-04-07T09:05:45.529Z,40.34
2019-04-07T09:10:53.809Z,40.15
2019-04-07T09:16:05.458Z,40.00
2019-04-07T09:21:19.929Z,39.84
2019-04-07T09:26:27.172Z,39.81
2019-04-07T09:31:32.583Z,39.70
2019-04-07T09:36:48.479Z,39.27
2019-04-07T09:41:59.977Z,39.31
2019-04-07T09:47:19.928Z,39.31
2019-04-07T09:52:37.234Z,39.30
2019-04-07T09:57:59.220Z,39.44
2019-04-07T10:03:07.729Z,39.49
2019-04-07T10:08:29.313Z,39.58
2019-04-07T10:13:40.968Z,39.61
2019-04-07T10:18:49.267Z,39.52
2019-04-07T10:24:00.738Z,39.61
2019-04-07T10:29:18.683Z,39.79
2019-04-07T10:34:24.872Z,39.93
2019-04-07T10:39:33.699Z,40.08
2019-04-07T10:44:42.341Z,40.35
2019-04-07T10:49:57.872Z,40.51
2019-04-07T10:54:54.941Z,40.44
2019-04-07T11:00:03.398Z,40.61
2019-04-07T11:05:21.745Z,40.70
2019-04-07T11:15:51.980Z,40.33
2019-04-07T11:21:09.821Z,40.46
2019-04-07T11:26:31.976Z,40.35
2019-04-07T11:31:37.167Z,40.17
2019-04-07T11:36:58.456Z,40.05
2019-04-07T11:42:06.516Z,39.96
2019-04-07T11:47:11.636Z,39.08
2019-04-07T11:57:33.662Z,38.00
2019-04-07T12:02:45.508Z,37.73
2019-04-07T12:08:07.235Z,37.50
2019-04-07T12:13:27.214Z,37.54
2019-04-07T12:18:38.682Z,37.60
2019-04-07T12:23:46.577Z,37.79
2019-04-07T12:28:52.429Z,37.79
2019-04-07T12:34:09.531Z,37.86
2019-04-07T12:39:31.591Z,37.79
2019-04-07T12:44:36.484Z,37.95
2019-04-07T12:49:44.476Z,38.35
2019-04-07T12:54:57.528Z,38.65
2019-04-07T13:00:02.657Z,39.07
2019-04-07T13:05:21.621Z,39.42
2019-04-07T13:10:30.231Z,39.83
2019-04-07T13:15:38.942Z,40.07
2019-04-07T13:20:53.364Z,40.04
2019-04-07T13:26:04.629Z,40.01
2019-04-07T13:31:10.152Z,40.01
2019-04-07T13:36:25.223Z,39.89
2019-04-07T13:41:41.661Z,39.75
2019-04-07T13:46:56.428Z,39.74
2019-04-07T13:52:02.410Z,39.92
2019-04-07T13:57:07.723Z,39.88
2019-04-07T14:02:31.581Z,39.66
2019-04-07T14:07:42.798Z,40.15
2019-04-07T14:12:58.656Z,40.38
2019-04-07T14:18:20.162Z,40.39
2019-04-07T14:23:38.413Z,40.44
2019-04-07T14:29:03.059Z,40.13
2019-04-07T14:34:27.268Z,38.92
2019-04-07T14:39:35.868Z,38.66
2019-04-07T14:44:51.099Z,38.28
2019-04-07T14:50:02.135Z,38.52
2019-04-07T14:55:10.995Z,37.94
2019-04-07T15:00:18.337Z,37.96
2019-04-07T15:05:32.831Z,37.88
2019-04-07T15:10:41.875Z,37.70
2019-04-07T15:15:45.412Z,37.75
2019-04-07T15:20:48.876Z,37.58
2019-04-07T15:25:52.793Z,37.28
2019-04-07T15:30:56.830Z,37.49
2019-04-07T15:36:00.431Z,37.25
2019-04-07T15:41:07.746Z,37.24
2019-04-07T15:46:09.517Z,37.23
2019-04-07T15:51:13.590Z,37.21
2019-04-07T15:56:19.395Z,37.20
2019-04-07T16:01:23.793Z,37.26
2019-04-07T16:06:28.020Z,37.18
2019-04-07T16:11:31.495Z,37.20
2019-04-07T16:16:34.957Z,37.27
2019-04-07T16:21:40.854Z,37.25
2019-04-07T16:26:44.374Z,37.25
2019-04-07T16:31:48.872Z,37.29
2019-04-07T16:36:55.111Z,37.28
2019-04-07T16:41:57.902Z,37.31
2019-04-07T16:47:03.956Z,37.28
2019-04-07T16:52:06.827Z,37.32
2019-04-07T16:57:10.562Z,37.36
2019-04-07T17:02:15.629Z,37.39
2019-04-07T17:07:21.100Z,37.43
2019-04-07T17:12:24.646Z,37.52
2019-04-07T17:17:28.328Z,37.72
2019-04-07T17:22:32.587Z,37.89
2019-04-07T17:27:36.845Z,38.13
2019-04-07T17:32:40.567Z,38.41
2019-04-07T17:37:43.969Z,38.63
2019-04-07T17:42:50.790Z,38.80
2019-04-07T17:47:57.303Z,38.96
2019-04-07T17:53:06.432Z,39.15
2019-04-07T17:58:27.769Z,39.29
2019-04-07T18:03:39.103Z,39.37
2019-04-07T18:08:45.320Z,39.41
2019-04-07T18:13:57.689Z,39.50
2019-04-07T18:19:01.642Z,39.60
2019-04-07T18:24:18.715Z,39.66
2019-04-07T18:29:29.649Z,39.74
2019-04-07T18:34:36.622Z,39.86
2019-04-07T18:39:55.041Z,39.96
2019-04-07T18:45:13.804Z,39.98
2019-04-07T18:50:22.018Z,40.14
2019-04-07T18:55:27.679Z,40.20
2019-04-07T19:00:45.762Z,40.26
2019-04-07T19:05:54.249Z,40.34
2019-04-07T19:11:14.868Z,40.43
2019-04-07T19:16:19.105Z,40.48
2019-04-07T19:21:31.526Z,40.54
2019-04-07T19:26:39.357Z,40.61
2019-04-07T19:31:50.463Z,40.70
2019-04-07T19:37:02.481Z,40.75
2019-04-07T19:42:09.040Z,40.77
2019-04-07T19:47:26.444Z,40.84
2019-04-07T19:52:49.894Z,40.86
2019-04-07T19:58:04.117Z,40.91
2019-04-07T20:03:28.432Z,40.98
2019-04-07T20:08:42.454Z,41.07
2019-04-07T20:13:47.551Z,41.17
2019-04-07T20:19:04.558Z,41.22
2019-04-07T20:24:13.145Z,41.23
2019-04-07T20:29:23.764Z,41.28
2019-04-07T20:34:33.995Z,41.30
2019-04-07T20:39:41.258Z,41.34
2019-04-07T20:44:59.940Z,41.40
2019-04-07T20:50:12.987Z,41.48
2019-04-07T20:55:21.468Z,41.53
2019-04-07T21:00:30.635Z,41.55
2019-04-07T21:05:48.283Z,41.69
2019-04-07T21:10:59.553Z,41.93
2019-04-07T21:16:14.391Z,42.08
2019-04-07T21:21:22.237Z,42.15
2019-04-07T21:26:33.529Z,42.15
2019-04-07T21:31:46.760Z,42.23
2019-04-07T21:37:00.473Z,42.30
2019-04-07T21:42:22.415Z,42.30
2019-04-07T21:47:44.108Z,42.31
2019-04-07T21:52:55.677Z,42.39
2019-04-07T21:58:07.158Z,42.37
2019-04-07T22:03:15.793Z,42.42
2019-04-07T22:08:21.911Z,42.48
2019-04-07T22:13:25.841Z,42.47
2019-04-07T22:18:29.343Z,42.49
2019-04-07T22:23:33.707Z,42.51
2019-04-07T22:28:37.462Z,42.56
2019-04-07T22:33:40.938Z,42.57
2019-04-07T22:38:44.462Z,42.59
2019-04-07T22:43:51.422Z,42.62
2019-04-07T22:53:57.749Z,42.68
2019-04-07T22:59:02.184Z,42.69
2019-04-07T23:04:05.823Z,42.73
2019-04-07T23:09:09.948Z,42.72
2019-04-07T23:14:13.637Z,42.72
2019-04-07T23:19:17.088Z,42.75
2019-04-07T23:24:21.288Z,42.77
2019-04-07T23:29:24.818Z,42.78
2019-04-07T23:34:28.292Z,42.81
2019-04-07T23:39:31.764Z,42.81
2019-04-07T23:44:35.286Z,42.83
2019-04-07T23:49:38.695Z,42.86
2019-04-07T23:54:42.152Z,42.89
2019-04-07T23:59:47.025Z,42.92
